Time;durP1;ratioP1;P1;durP2;ratioP2;P2;SDS_P1;SDS_P2;PMS_P1;PMS_P2;Temp;Humidity;BMP_temperature;BMP_pressure;BME280_temperature;BME280_humidity;BME280_pressure;Samples;Min_cycle;Max_cycle;Signal;HPM_P1;HPM_P2
2023/07/20 00:00:54;;;;;;;2.20;1.80;;;;;;;10.64;85.39;98968.16;106693;1269;24019;-46
2023/07/20 00:03:34;;;;;;;4.50;2.20;;;;;;;10.66;85.43;98964.73;106722;1255;22628;-44
2023/07/20 00:06:04;;;;;;;4.50;1.70;;;;;;;10.65;85.14;98963.39;106718;1269;99829;-45
2023/07/20 00:08:33;;;;;;;2.30;1.70;;;;;;;10.62;85.02;98963.21;106653;1275;25307;-44
2023/07/20 00:11:01;;;;;;;3.00;2.00;;;;;;;10.61;85.30;98960.70;106841;1271;99334;-44
2023/07/20 00:13:30;;;;;;;2.20;1.50;;;;;;;10.61;85.61;98959.80;106806;1272;25475;-45
2023/07/20 00:15:59;;;;;;;2.80;2.00;;;;;;;10.60;85.88;98958.52;107014;1269;22650;-45
2023/07/20 00:18:28;;;;;;;5.00;2.30;;;;;;;10.58;85.73;98957.20;106724;1269;99534;-46
2023/07/20 00:20:59;;;;;;;3.10;2.00;;;;;;;10.50;85.66;98953.96;106734;1269;22523;-44
2023/07/20 00:23:28;;;;;;;2.60;1.80;;;;;;;10.53;85.65;98956.45;106722;1269;99638;-44
2023/07/20 00:25:57;;;;;;;4.20;2.20;;;;;;;10.55;85.79;98958.08;106876;1269;22529;-43
2023/07/20 00:28:26;;;;;;;4.10;2.20;;;;;;;10.54;85.89;98962.14;106822;1268;22526;-44
2023/07/20 00:30:54;;;;;;;3.20;1.90;;;;;;;10.54;85.85;98958.31;106760;1268;25203;-46
2023/07/20 00:33:23;;;;;;;5.10;2.00;;;;;;;10.48;85.97;98965.45;106862;1269;25250;-44
2023/07/20 00:35:51;;;;;;;4.30;1.80;;;;;;;10.47;86.13;98958.38;106661;1269;99609;-45
2023/07/20 00:38:20;;;;;;;5.40;2.40;;;;;;;10.47;86.48;98961.47;106823;1269;25161;-44
2023/07/20 00:40:49;;;;;;;3.80;2.00;;;;;;;10.48;86.87;98958.81;106702;1273;99885;-44
2023/07/20 00:43:19;;;;;;;6.40;2.70;;;;;;;10.48;87.13;98958.44;106760;1269;22664;-45
2023/07/20 00:45:48;;;;;;;3.90;1.90;;;;;;;10.49;87.10;98958.56;106777;1270;24228;-45
2023/07/20 00:48:16;;;;;;;3.80;2.40;;;;;;;10.49;86.95;98959.63;106742;1269;99716;-45
2023/07/20 00:50:47;;;;;;;3.30;2.20;;;;;;;10.50;87.05;98962.20;106891;1269;22608;-45
2023/07/20 00:53:18;;;;;;;2.30;2.00;;;;;;;10.51;87.10;98956.55;107009;1268;99100;-45
2023/07/20 00:55:48;;;;;;;2.80;1.80;;;;;;;10.50;86.81;98958.17;106807;1267;22651;-44
2023/07/20 00:58:20;;;;;;;3.50;2.30;;;;;;;10.48;86.63;98957.62;106768;1269;24742;-45
2023/07/20 01:00:50;;;;;;;4.40;2.80;;;;;;;10.46;86.56;98960.15;106758;1272;99185;-45
2023/07/20 01:03:22;;;;;;;2.60;1.70;;;;;;;10.41;86.61;98961.34;106697;1275;25294;-46
2023/07/20 01:05:57;;;;;;;2.50;1.90;;;;;;;10.36;86.59;98959.51;106630;1270;99702;-45
2023/07/20 01:08:38;;;;;;;3.00;2.20;;;;;;;10.30;86.84;98960.39;106845;1272;22517;-45
2023/07/20 01:11:15;;;;;;;3.00;1.80;;;;;;;10.31;86.91;98964.86;106750;1269;99522;-47
2023/07/20 01:13:44;;;;;;;6.10;2.40;;;;;;;10.35;86.96;98968.30;106782;1269;24972;-44
2023/07/20 01:16:13;;;;;;;3.00;2.50;;;;;;;10.39;87.13;98972.43;106814;1269;25409;-45
2023/07/20 01:18:42;;;;;;;2.20;2.00;;;;;;;10.42;87.18;98973.60;106474;1273;99894;-46
2023/07/20 01:21:32;;;;;;;2.30;2.00;;;;;;;10.44;87.49;98974.05;106898;1269;22524;-44
2023/07/20 01:24:32;;;;;;;2.30;1.50;;;;;;;10.51;87.39;98973.78;106600;1271;99516;-45
2023/07/20 01:27:32;;;;;;;3.70;2.10;;;;;;;10.52;87.46;98968.86;107016;1268;22528;-45
2023/07/20 01:30:12;;;;;;;3.30;2.00;;;;;;;10.48;87.59;98967.83;106241;1276;99287;-45
2023/07/20 01:32:43;;;;;;;3.00;2.10;;;;;;;10.50;87.59;98967.05;106324;1276;25355;-44
2023/07/20 01:35:16;;;;;;;2.90;1.70;;;;;;;10.52;87.58;98968.30;106149;1280;99914;-45
2023/07/20 01:37:47;;;;;;;3.00;1.90;;;;;;;10.57;87.50;98968.75;106232;1277;22547;-45
2023/07/20 01:40:16;;;;;;;3.50;1.50;;;;;;;10.58;87.50;98962.77;106194;1283;25745;-46
2023/07/20 01:42:46;;;;;;;4.60;2.20;;;;;;;10.60;87.74;98963.86;106213;1277;99156;-45
2023/07/20 01:45:15;;;;;;;4.00;1.80;;;;;;;10.65;87.93;98960.98;106262;1276;22560;-47
2023/07/20 01:47:44;;;;;;;2.90;1.30;;;;;;;10.71;87.94;98963.22;106135;1279;99246;-44
2023/07/20 01:50:13;;;;;;;2.50;2.00;;;;;;;10.76;88.03;98964.30;107216;1282;25352;-44
2023/07/20 01:52:42;;;;;;;4.90;2.00;;;;;;;10.81;88.11;98962.27;106190;1276;100079;-44
2023/07/20 01:55:11;;;;;;;2.90;1.30;;;;;;;10.87;88.22;98964.13;106294;1279;22558;-45
2023/07/20 01:57:41;;;;;;;2.30;1.40;;;;;;;10.94;88.23;98957.27;106368;1277;25475;-44
2023/07/20 02:00:12;;;;;;;1.70;1.40;;;;;;;10.98;88.20;98957.90;106149;1278;99802;-46
2023/07/20 02:02:42;;;;;;;3.00;1.30;;;;;;;11.00;88.05;98954.68;106318;1278;24246;-46
2023/07/20 02:05:11;;;;;;;2.50;1.40;;;;;;;10.99;87.98;98958.91;106121;1280;99771;-46
2023/07/20 02:07:40;;;;;;;2.60;1.50;;;;;;;11.01;88.16;98961.73;106423;1269;25418;-45
2023/07/20 02:10:09;;;;;;;2.90;1.30;;;;;;;11.03;88.28;98958.69;106638;1275;25370;-44
2023/07/20 02:12:38;;;;;;;1.80;1.30;;;;;;;11.04;88.26;98956.87;106607;1275;99613;-44
2023/07/20 02:15:08;;;;;;;3.10;1.50;;;;;;;11.03;88.21;98953.08;106655;1273;23922;-47
2023/07/20 02:17:37;;;;;;;2.50;1.40;;;;;;;11.02;88.13;98956.14;106625;1275;99145;-44
2023/07/20 02:20:08;;;;;;;3.80;1.70;;;;;;;10.98;87.98;98953.05;106865;1271;25243;-45
2023/07/20 02:22:38;;;;;;;1.90;1.20;;;;;;;10.92;87.99;98953.94;106731;1269;99803;-44
2023/07/20 02:25:08;;;;;;;1.30;1.20;;;;;;;10.87;88.02;98953.17;106781;1272;25351;-45
2023/07/20 02:27:38;;;;;;;3.80;1.20;;;;;;;10.83;88.05;98955.02;106865;1271;22654;-46
2023/07/20 02:30:09;;;;;;;1.90;1.40;;;;;;;10.79;88.13;98955.25;106899;1269;99127;-46
2023/07/20 02:32:38;;;;;;;2.60;1.80;;;;;;;10.75;88.16;98951.14;106777;1274;22572;-43
2023/07/20 02:35:07;;;;;;;2.50;1.30;;;;;;;10.71;88.14;98952.59;106630;1276;99813;-43
2023/07/20 02:37:36;;;;;;;4.50;1.30;;;;;;;10.67;88.18;98953.69;107108;1268;22528;-45
2023/07/20 02:40:07;;;;;;;2.00;1.70;;;;;;;10.64;88.15;98960.17;106824;1272;25373;-45
2023/07/20 02:42:35;;;;;;;3.00;1.50;;;;;;;10.59;88.16;98955.61;106715;1269;99925;-45
2023/07/20 02:45:05;;;;;;;4.10;1.90;;;;;;;10.53;88.15;98959.38;106829;1276;25352;-46
2023/07/20 02:47:33;;;;;;;3.90;1.60;;;;;;;10.48;88.13;98952.88;106811;1275;99723;-44
2023/07/20 02:50:03;;;;;;;4.00;1.90;;;;;;;10.46;88.28;98957.89;106827;1269;25345;-44
2023/07/20 02:52:32;;;;;;;2.30;1.50;;;;;;;10.44;88.38;98957.11;106803;1270;99814;-44
2023/07/20 02:55:00;;;;;;;2.50;2.10;;;;;;;10.43;88.36;98951.30;106709;1272;25539;-44
2023/07/20 02:57:29;;;;;;;3.90;2.00;;;;;;;10.42;88.38;98950.27;106951;1273;22520;-45
2023/07/20 02:59:57;;;;;;;5.10;2.50;;;;;;;10.42;88.43;98953.11;106715;1270;99249;-45
2023/07/20 03:02:29;;;;;;;3.70;2.10;;;;;;;10.41;88.46;98950.52;106827;1276;22521;-45
2023/07/20 03:04:59;;;;;;;2.80;1.60;;;;;;;10.41;88.62;98955.04;106654;1276;99309;-46
2023/07/20 03:07:28;;;;;;;4.40;2.00;;;;;;;10.42;88.88;98956.21;106824;1265;22631;-43
2023/07/20 03:09:57;;;;;;;3.80;1.60;;;;;;;10.45;88.93;98957.60;106832;1269;22524;-44
2023/07/20 03:12:25;;;;;;;5.60;2.10;;;;;;;10.49;89.09;98953.05;106765;1269;99170;-45
2023/07/20 03:14:54;;;;;;;2.00;1.40;;;;;;;10.57;89.33;98957.30;106663;1269;26718;-44
2023/07/20 03:17:22;;;;;;;3.60;2.30;;;;;;;10.64;89.60;98952.86;106737;1274;99062;-45
2023/07/20 03:19:51;;;;;;;2.90;2.30;;;;;;;10.73;89.67;98952.13;106695;1269;25348;-44
2023/07/20 03:22:21;;;;;;;3.30;2.30;;;;;;;10.82;89.69;98950.71;106806;1269;23882;-46
2023/07/20 03:24:50;;;;;;;2.20;1.80;;;;;;;10.91;89.79;98947.02;106772;1269;99368;-44
2023/07/20 03:27:18;;;;;;;4.90;1.90;;;;;;;10.99;90.03;98948.63;106768;1269;22523;-45
2023/07/20 03:29:47;;;;;;;2.00;1.70;;;;;;;11.09;90.21;98950.85;106707;1269;99741;-45
2023/07/20 03:32:15;;;;;;;7.90;1.90;;;;;;;11.23;90.42;98950.30;106799;1269;25407;-44
2023/07/20 03:34:44;;;;;;;10.70;2.00;;;;;;;11.40;90.75;98943.95;106719;1269;99456;-44
2023/07/20 03:37:13;;;;;;;5.20;2.00;;;;;;;11.60;90.81;98946.57;106780;1269;25595;-43
2023/07/20 03:39:42;;;;;;;9.20;2.00;;;;;;;11.78;91.01;98945.39;106630;1269;26622;-45
2023/07/20 03:42:10;;;;;;;7.40;2.00;;;;;;;11.98;91.05;98943.63;106719;1265;99315;-45
2023/07/20 03:44:39;;;;;;;7.70;1.90;;;;;;;12.14;90.92;98944.30;106670;1263;23907;-45
2023/07/20 03:47:09;;;;;;;5.70;1.70;;;;;;;12.31;90.85;98948.73;110486;1269;99748;-46
2023/07/20 03:49:37;;;;;;;2.20;1.60;;;;;;;12.46;90.85;98942.88;110578;1269;22529;-45
2023/07/20 03:52:06;;;;;;;2.40;1.40;;;;;;;12.63;90.85;98946.98;110600;1270;22139;-46
2023/07/20 03:54:34;;;;;;;8.40;2.30;;;;;;;12.79;90.92;98949.52;110497;1269;99193;-46
2023/07/20 03:57:03;;;;;;;1.80;1.30;;;;;;;12.95;90.83;98950.19;106990;1269;22529;-46
2023/07/20 03:59:33;;;;;;;3.20;1.70;;;;;;;13.08;90.70;98950.52;106727;1269;101244;-45
2023/07/20 04:02:02;;;;;;;2.00;1.50;;;;;;;13.14;90.73;98947.79;106804;1269;25282;-44
2023/07/20 04:04:31;;;;;;;3.00;1.40;;;;;;;13.29;90.90;98954.16;106805;1269;99390;-44
2023/07/20 04:06:59;;;;;;;3.10;1.20;;;;;;;13.36;90.78;98952.55;106798;1269;23804;-44
2023/07/20 04:09:28;;;;;;;2.70;1.40;;;;;;;13.43;91.09;98945.45;106724;1269;22647;-44
2023/07/20 04:11:57;;;;;;;2.80;1.40;;;;;;;13.53;91.04;98953.46;106826;1269;99469;-46
2023/07/20 04:14:26;;;;;;;3.40;1.30;;;;;;;13.57;90.95;98954.60;106784;1269;22524;-45
2023/07/20 04:16:54;;;;;;;3.70;2.10;;;;;;;13.58;90.82;98956.06;106765;1269;99328;-44
2023/07/20 04:19:23;;;;;;;4.90;1.20;;;;;;;13.58;90.80;98953.63;106889;1269;25304;-47
2023/07/20 04:21:51;;;;;;;3.50;1.40;;;;;;;13.61;90.95;98959.02;106735;1269;25449;-46
2023/07/20 04:24:20;;;;;;;4.20;1.10;;;;;;;13.61;90.84;98956.35;106729;1269;99685;-44
2023/07/20 04:26:49;;;;;;;4.20;2.00;;;;;;;13.63;90.92;98954.16;106827;1269;24216;-44
2023/07/20 04:29:17;;;;;;;2.60;1.50;;;;;;;13.69;91.13;98957.63;106773;1269;99571;-45
2023/07/20 04:31:46;;;;;;;4.10;1.40;;;;;;;13.76;91.12;98964.29;106793;1269;25345;-45
2023/07/20 04:34:15;;;;;;;3.50;1.70;;;;;;;13.79;91.05;98962.62;106751;1269;23143;-45
2023/07/20 04:36:43;;;;;;;3.70;1.40;;;;;;;13.82;91.04;98963.06;106641;1269;99533;-45
2023/07/20 04:39:13;;;;;;;8.20;1.80;;;;;;;13.87;91.13;98962.59;106523;1268;25360;-45
2023/07/20 04:41:58;;;;;;;2.60;1.40;;;;;;;13.86;90.91;98965.77;106751;1269;99448;-45
2023/07/20 04:44:27;;;;;;;1.70;1.30;;;;;;;13.82;90.89;98968.49;106743;1269;22524;-44
2023/07/20 04:46:56;;;;;;;3.50;1.40;;;;;;;13.77;90.93;98965.58;106751;1269;99369;-44
2023/07/20 04:49:25;;;;;;;2.20;1.50;;;;;;;13.70;90.95;98964.50;106857;1272;22517;-45
2023/07/20 04:51:54;;;;;;;6.50;1.30;;;;;;;13.67;91.07;98967.32;106657;1270;24213;-44
2023/07/20 04:54:22;;;;;;;3.20;1.30;;;;;;;13.66;91.21;98973.54;106636;1269;99205;-44
2023/07/20 04:56:51;;;;;;;2.10;1.50;;;;;;;13.60;91.07;98972.19;106768;1276;22539;-43
2023/07/20 04:59:20;;;;;;;4.70;1.50;;;;;;;13.55;91.17;98976.95;106713;1269;99143;-45
2023/07/20 05:01:48;;;;;;;4.50;1.60;;;;;;;13.52;91.29;98979.39;106782;1269;24177;-44
2023/07/20 05:04:17;;;;;;;2.30;1.50;;;;;;;13.47;91.50;98979.77;106868;1269;24039;-44
2023/07/20 05:06:46;;;;;;;2.40;1.60;;;;;;;13.44;91.70;98974.92;106716;1269;99052;-45
2023/07/20 05:09:14;;;;;;;3.30;1.60;;;;;;;13.45;91.62;98975.40;106613;1269;22507;-45
2023/07/20 05:11:45;;;;;;;2.40;1.50;;;;;;;13.44;91.69;98975.77;106702;1275;99774;-46
2023/07/20 05:14:13;;;;;;;2.50;2.00;;;;;;;13.43;91.69;98975.89;106694;1274;25370;-44
2023/07/20 05:16:42;;;;;;;3.40;1.60;;;;;;;13.39;91.59;98976.00;106591;1272;99374;-46
2023/07/20 05:19:10;;;;;;;2.30;1.70;;;;;;;13.35;91.74;98973.31;106922;1273;25434;-44
2023/07/20 05:21:39;;;;;;;4.50;1.90;;;;;;;13.35;91.97;98967.89;106696;1274;22882;-45
2023/07/20 05:24:08;;;;;;;4.00;1.80;;;;;;;13.34;92.06;98970.05;106528;1268;99453;-45
2023/07/20 05:26:37;;;;;;;4.30;1.80;;;;;;;13.35;92.05;98976.48;106635;1268;22560;-45
2023/07/20 05:29:06;;;;;;;2.70;1.70;;;;;;;13.36;92.19;98985.99;106506;1269;99787;-44
2023/07/20 05:31:35;;;;;;;3.00;1.70;;;;;;;13.38;92.13;98984.11;106741;1269;22636;-44
2023/07/20 05:34:03;;;;;;;2.40;1.50;;;;;;;13.42;91.95;98982.23;106855;1269;22624;-44
2023/07/20 05:36:32;;;;;;;2.30;1.60;;;;;;;13.48;91.90;98979.75;106699;1264;99252;-44
2023/07/20 05:39:01;;;;;;;3.70;1.60;;;;;;;13.52;91.83;98983.25;106849;1269;22523;-44
2023/07/20 05:41:29;;;;;;;2.00;1.50;;;;;;;13.61;92.05;98985.78;106647;1272;99083;-43
2023/07/20 05:43:58;;;;;;;1.90;1.50;;;;;;;13.67;91.82;98980.13;106761;1275;22899;-45
2023/07/20 05:46:26;;;;;;;1.50;1.20;;;;;;;13.69;91.69;98976.17;106737;1269;22535;-44
2023/07/20 05:49:03;;;;;;;2.80;1.70;;;;;;;13.69;91.48;98981.05;106760;1270;22889;-45
2023/07/20 05:51:31;;;;;;;1.60;1.20;;;;;;;13.69;91.59;98977.36;106759;1269;22576;-44
2023/07/20 05:54:03;;;;;;;2.00;1.10;;;;;;;13.72;91.67;98982.42;106661;1269;99296;-46
2023/07/20 05:56:32;;;;;;;2.00;1.20;;;;;;;13.71;91.35;98980.68;106749;1269;25345;-44
2023/07/20 05:59:00;;;;;;;3.30;1.20;;;;;;;13.75;91.66;98982.02;106748;1269;99910;-45
2023/07/20 06:01:29;;;;;;;1.60;1.00;;;;;;;13.82;91.77;98979.20;106785;1276;25513;-44
2023/07/20 06:03:57;;;;;;;1.70;1.00;;;;;;;13.83;91.51;98981.57;106841;1270;25370;-44
2023/07/20 06:06:26;;;;;;;3.70;1.00;;;;;;;13.81;91.32;98982.23;106723;1269;99311;-45
2023/07/20 06:08:55;;;;;;;2.20;1.20;;;;;;;13.75;91.06;98984.83;106807;1273;22782;-44
2023/07/20 06:11:24;;;;;;;1.90;1.20;;;;;;;13.71;91.17;98981.41;106850;1269;101095;-44
2023/07/20 06:13:53;;;;;;;2.00;1.00;;;;;;;13.71;91.21;98982.13;106762;1269;25297;-44
2023/07/20 06:16:21;;;;;;;1.20;0.70;;;;;;;13.69;91.28;98978.56;106567;1271;24075;-46
2023/07/20 06:18:50;;;;;;;1.30;0.80;;;;;;;13.76;91.70;98978.79;106751;1269;99023;-45
2023/07/20 06:21:18;;;;;;;2.30;0.70;;;;;;;13.94;92.32;98976.55;106603;1269;25549;-44
2023/07/20 06:23:47;;;;;;;1.80;0.70;;;;;;;14.18;92.43;98973.41;106742;1269;99243;-45
2023/07/20 06:26:15;;;;;;;1.20;0.80;;;;;;;14.30;91.56;98971.08;106750;1269;22535;-44
2023/07/20 06:28:44;;;;;;;2.00;1.00;;;;;;;14.24;91.15;98968.60;106765;1270;99497;-43
2023/07/20 06:31:13;;;;;;;1.60;0.90;;;;;;;14.11;91.00;98965.36;106825;1269;22582;-45
2023/07/20 06:33:42;;;;;;;1.50;1.10;;;;;;;14.04;91.01;98964.06;106900;1272;22542;-45
2023/07/20 06:36:11;;;;;;;1.70;1.20;;;;;;;13.92;91.11;98963.27;106755;1275;99265;-44
2023/07/20 06:38:40;;;;;;;1.20;0.90;;;;;;;13.86;91.63;98966.15;106519;1269;22527;-44
2023/07/20 06:41:09;;;;;;;2.40;1.10;;;;;;;13.82;91.69;98962.75;106728;1269;101378;-44
2023/07/20 06:43:41;;;;;;;2.00;0.80;;;;;;;13.86;91.96;98963.15;106533;1271;25307;-44
2023/07/20 06:46:12;;;;;;;2.10;0.90;;;;;;;13.90;91.81;98960.61;106943;1269;22543;-44
2023/07/20 06:48:41;;;;;;;1.80;0.80;;;;;;;14.11;92.19;98956.44;106541;1271;99791;-44
2023/07/20 06:51:13;;;;;;;2.40;1.40;;;;;;;14.49;93.06;98960.11;106960;1271;24488;-45
2023/07/20 06:53:42;;;;;;;2.30;1.30;;;;;;;15.06;93.91;98960.12;106712;1272;99802;-44
2023/07/20 06:56:11;;;;;;;2.90;1.20;;;;;;;15.79;94.31;98956.41;106864;1272;25339;-45
2023/07/20 06:58:40;;;;;;;4.80;2.90;;;;;;;16.54;93.64;98951.17;106768;1271;99348;-44
2023/07/20 07:01:08;;;;;;;3.40;1.50;;;;;;;17.30;93.33;98951.70;106777;1269;25519;-45
2023/07/20 07:03:38;;;;;;;3.20;1.10;;;;;;;18.03;93.19;98948.63;106824;1271;22530;-46
2023/07/20 07:06:06;;;;;;;0.80;0.40;;;;;;;19.09;93.69;98947.25;106712;1270;99310;-45
2023/07/20 07:08:35;;;;;;;0.70;0.30;;;;;;;19.92;90.35;98950.08;106854;1272;25402;-46
2023/07/20 07:11:05;;;;;;;1.00;0.30;;;;;;;20.41;90.38;98946.64;106774;1270;99414;-47
2023/07/20 07:13:34;;;;;;;0.40;0.20;;;;;;;21.04;89.06;98944.04;106760;1270;25412;-46
2023/07/20 07:16:03;;;;;;;1.10;0.50;;;;;;;21.86;90.26;98941.84;106722;1260;22574;-46
2023/07/20 07:18:37;;;;;;;0.30;0.30;;;;;;;22.80;88.31;98943.46;106712;1269;99136;-47
2023/07/20 07:21:05;;;;;;;1.40;0.20;;;;;;;23.58;87.88;98942.33;106847;1272;22545;-45
2023/07/20 07:23:34;;;;;;;0.80;0.20;;;;;;;24.47;87.45;98940.25;106878;1269;99164;-46
2023/07/20 07:26:03;;;;;;;0.80;0.30;;;;;;;25.52;86.74;98939.10;107080;1273;22541;-47
2023/07/20 07:28:32;;;;;;;0.90;0.30;;;;;;;26.52;85.10;98939.73;106789;1275;22527;-47
2023/07/20 07:31:04;;;;;;;0.60;0.20;;;;;;;27.61;84.40;98934.60;106772;1270;25511;-45
2023/07/20 07:33:34;;;;;;;2.60;0.40;;;;;;;28.31;81.69;98936.11;106568;1272;22537;-48
2023/07/20 07:36:04;;;;;;;1.20;0.40;;;;;;;28.94;81.95;98935.50;106502;1266;99280;-46
2023/07/20 07:38:32;;;;;;;1.30;0.30;;;;;;;29.85;82.22;98936.36;106641;1275;23235;-47
2023/07/20 07:41:22;;;;;;;0.20;0.20;;;;;;;30.04;76.15;98936.75;106597;1272;99843;-48
2023/07/20 07:43:51;;;;;;;2.00;0.40;;;;;;;29.22;74.91;98937.64;106865;1272;23076;-47
2023/07/20 07:46:19;;;;;;;0.30;0.20;;;;;;;28.30;75.28;98938.74;106715;1271;25337;-47
2023/07/20 07:48:49;;;;;;;0.60;0.30;;;;;;;27.86;76.31;98939.78;106669;1269;99709;-46
2023/07/20 07:51:18;;;;;;;1.60;0.70;;;;;;;27.68;76.07;98941.79;106717;1269;25271;-47
2023/07/20 07:53:48;;;;;;;1.60;0.50;;;;;;;27.83;76.89;98939.67;106703;1269;101510;-46
2023/07/20 07:56:22;;;;;;;1.00;0.30;;;;;;;28.78;75.61;98939.23;106849;1275;22517;-46
2023/07/20 07:58:52;;;;;;;0.80;0.30;;;;;;;30.10;75.68;98937.79;106775;1269;99845;-48
2023/07/20 08:01:21;;;;;;;2.40;0.90;;;;;;;31.54;74.32;98934.77;106578;1258;300624;-48
2023/07/20 08:03:51;;;;;;;0.40;0.30;;;;;;;32.89;72.31;98930.23;106867;1269;22770;-50
2023/07/20 08:06:20;;;;;;;0.90;0.30;;;;;;;33.12;67.40;98930.86;106867;1265;100277;-47
2023/07/20 08:08:50;;;;;;;1.10;0.30;;;;;;;31.93;64.99;98932.92;106895;1270;22905;-46
2023/07/20 08:11:19;;;;;;;0.30;0.20;;;;;;;30.42;65.38;98934.55;106812;1273;99306;-50
2023/07/20 08:13:48;;;;;;;0.70;0.40;;;;;;;29.41;66.31;98933.88;106915;1269;24200;-48
2023/07/20 08:16:16;;;;;;;1.40;0.30;;;;;;;29.59;68.61;98931.32;106964;1269;26590;-50
2023/07/20 08:18:45;;;;;;;2.20;0.60;;;;;;;31.12;67.93;98933.16;106802;1269;99249;-47
2023/07/20 08:21:14;;;;;;;1.90;0.80;;;;;;;32.05;63.83;98935.79;106790;1269;25288;-48
2023/07/20 08:23:43;;;;;;;0.80;0.50;;;;;;;32.37;63.27;98932.77;106697;1270;99242;-47
2023/07/20 08:26:12;;;;;;;0.90;0.40;;;;;;;32.46;60.68;98935.12;106901;1272;22525;-48
2023/07/20 08:28:44;;;;;;;2.70;0.50;;;;;;;32.86;61.06;98933.48;106835;1270;99459;-48
2023/07/20 08:31:12;;;;;;;1.50;0.40;;;;;;;32.95;59.51;98931.48;106787;1274;23933;-47
2023/07/20 08:33:41;;;;;;;3.50;0.50;;;;;;;33.03;59.18;98929.95;107046;1269;24244;-47
2023/07/20 08:36:10;;;;;;;0.80;0.40;;;;;;;32.43;54.24;98936.47;106612;1276;99241;-46
2023/07/20 08:38:39;;;;;;;0.50;0.30;;;;;;;31.81;56.86;98939.26;106738;1270;22534;-48
2023/07/20 08:41:09;;;;;;;1.00;0.40;;;;;;;32.74;57.74;98936.05;106759;1266;99818;-49
2023/07/20 08:43:42;;;;;;;2.20;0.40;;;;;;;32.90;53.06;98941.39;106881;1269;22534;-47
2023/07/20 08:46:13;;;;;;;0.50;0.30;;;;;;;31.69;54.07;98946.17;106960;1269;25253;-49
2023/07/20 08:48:46;;;;;;;0.60;0.30;;;;;;;31.65;54.30;98944.27;107459;1275;99137;-48
2023/07/20 08:51:16;;;;;;;0.90;0.30;;;;;;;31.69;53.36;98942.77;106793;1273;22610;-47
2023/07/20 08:53:46;;;;;;;11.40;1.40;;;;;;;32.74;53.55;98940.70;107564;1272;25300;-49
2023/07/20 08:56:17;;;;;;;1.00;0.40;;;;;;;33.40;52.04;98939.80;106561;1268;22540;-48
2023/07/20 08:58:46;;;;;;;4.40;1.10;;;;;;;32.45;50.55;98945.39;106785;1275;22550;-47
2023/07/20 09:01:14;;;;;;;0.50;0.20;;;;;;;32.11;51.26;98946.32;106877;1269;25370;-47
2023/07/20 09:03:46;;;;;;;2.20;0.30;;;;;;;32.52;50.54;98939.50;106726;1275;22527;-47
2023/07/20 09:06:15;;;;;;;0.90;0.40;;;;;;;33.10;49.44;98940.15;106656;1270;99223;-47
2023/07/20 09:08:44;;;;;;;4.20;0.40;;;;;;;32.77;47.49;98937.82;106742;1272;25287;-47
2023/07/20 09:11:15;;;;;;;2.60;0.40;;;;;;;32.10;46.72;98940.40;106610;1273;99413;-47
2023/07/20 09:13:43;;;;;;;0.70;0.30;;;;;;;31.18;46.66;98942.77;106713;1269;24613;-50
2023/07/20 09:16:16;;;;;;;3.50;0.40;;;;;;;30.86;46.92;98940.16;106841;1272;22760;-49
2023/07/20 09:18:45;;;;;;;1.10;0.30;;;;;;;30.66;46.32;98939.67;106472;1274;99155;-47
2023/07/20 09:21:17;;;;;;;0.50;0.30;;;;;;;30.04;45.47;98944.62;106966;1272;22593;-49
2023/07/20 09:23:48;;;;;;;0.50;0.40;;;;;;;28.91;45.09;98946.65;106705;1272;99265;-46
2023/07/20 09:26:17;;;;;;;3.00;0.80;;;;;;;28.64;46.05;98944.80;106832;1275;22523;-47
2023/07/20 09:28:52;;;;;;;0.20;0.20;;;;;;;29.61;46.83;98944.62;106686;1263;23930;-46
2023/07/20 09:31:24;;;;;;;1.30;0.30;;;;;;;31.09;46.45;98937.52;106992;1275;23120;-50
2023/07/20 09:33:53;;;;;;;4.00;0.50;;;;;;;32.73;45.85;98933.45;106747;1270;22537;-49
2023/07/20 09:36:27;;;;;;;0.50;0.10;;;;;;;33.97;45.03;98927.28;106646;1270;99668;-50
2023/07/20 09:38:59;;;;;;;1.00;0.20;;;;;;;35.08;44.62;98932.00;106593;1272;22550;-48
2023/07/20 09:41:42;;;;;;;1.50;0.40;;;;;;;35.97;41.43;98925.49;106639;1272;99300;-49
2023/07/20 09:44:16;;;;;;;1.30;0.30;;;;;;;37.11;41.42;98919.61;106862;1270;25061;-51
2023/07/20 09:46:50;;;;;;;0.50;0.20;;;;;;;38.20;40.61;98915.59;106774;1270;22078;-56
2023/07/20 09:49:22;;;;;;;0.20;0.20;;;;;;;38.65;39.50;98916.62;106974;1269;25352;-53
2023/07/20 09:51:54;;;;;;;0.30;0.30;;;;;;;38.84;38.76;98909.58;106736;1270;22731;-53
2023/07/20 09:54:27;;;;;;;1.80;0.30;;;;;;;39.85;38.93;98908.39;106544;1275;99236;-53
2023/07/20 09:56:56;;;;;;;0.70;0.40;;;;;;;41.04;37.97;98904.78;106798;1273;23907;-53
2023/07/20 09:59:24;;;;;;;1.00;0.20;;;;;;;40.91;36.84;98902.42;106703;1265;99251;-54
2023/07/20 10:01:59;;;;;;;1.00;0.30;;;;;;;41.69;36.20;98897.17;106717;1270;22559;-55
2023/07/20 10:04:29;;;;;;;9.70;1.30;;;;;;;42.16;33.34;98896.63;106931;1276;22560;-54
2023/07/20 10:07:03;;;;;;;1.40;0.40;;;;;;;42.45;33.76;98893.00;106830;1273;99673;-54
2023/07/20 10:09:33;;;;;;;0.80;0.30;;;;;;;42.69;33.02;98892.50;106927;1273;23002;-54
2023/07/20 10:12:02;;;;;;;0.90;0.30;;;;;;;43.40;32.74;98892.46;106617;1272;99958;-54
2023/07/20 10:15:03;;;;;;;2.40;0.30;;;;;;;42.94;30.22;98897.10;106842;1266;22642;-53
2023/07/20 10:17:31;;;;;;;0.30;0.30;;;;;;;40.70;29.19;98903.56;106764;1270;99411;-53
2023/07/20 10:20:03;;;;;;;2.20;0.50;;;;;;;38.24;29.10;98902.43;106638;1272;22768;-51
2023/07/20 10:22:36;;;;;;;0.40;0.30;;;;;;;35.76;28.92;98909.09;106929;1269;22798;-51
2023/07/20 10:25:10;;;;;;;5.50;0.40;;;;;;;33.59;29.38;98909.80;106674;1269;99121;-51
2023/07/20 10:27:39;;;;;;;1.20;0.40;;;;;;;32.09;29.62;98910.48;106595;1269;25338;-51
2023/07/20 10:30:09;;;;;;;3.80;0.50;;;;;;;30.74;29.86;98913.88;106567;1270;99951;-49
2023/07/20 10:32:40;;;;;;;5.00;0.40;;;;;;;29.42;30.21;98921.90;106820;1276;26607;-49
2023/07/20 10:35:14;;;;;;;0.50;0.20;;;;;;;28.15;30.52;98931.29;106792;1276;99399;-52
2023/07/20 10:37:55;;;;;;;1.60;0.40;;;;;;;26.94;30.77;98938.43;106825;1269;22545;-49
2023/07/20 10:40:26;;;;;;;1.10;0.50;;;;;;;25.69;31.63;98946.85;106576;1259;22643;-48
2023/07/20 10:43:09;;;;;;;3.80;0.30;;;;;;;24.51;32.01;98948.98;106635;1269;99144;-47
2023/07/20 10:45:53;;;;;;;1.70;0.40;;;;;;;23.16;33.12;98960.23;106978;1270;24491;-50
2023/07/20 10:48:25;;;;;;;1.70;0.40;;;;;;;21.91;33.89;98965.09;106762;1275;99772;-49
2023/07/20 10:51:16;;;;;;;0.70;0.30;;;;;;;21.22;35.10;98964.08;106801;1276;22626;-50
2023/07/20 10:53:45;;;;;;;1.70;0.50;;;;;;;20.61;35.92;98965.13;106469;1271;99528;-48
2023/07/20 10:56:19;;;;;;;1.00;0.40;;;;;;;19.97;37.21;98970.98;106690;1272;22529;-51
2023/07/20 10:58:48;;;;;;;1.40;0.40;;;;;;;19.31;39.34;98977.45;106512;1272;26970;-47
2023/07/20 11:01:17;;;;;;;1.50;0.30;;;;;;;18.74;39.93;98975.96;106817;1275;98876;-47
2023/07/20 11:03:50;;;;;;;0.50;0.30;;;;;;;18.34;39.96;98975.92;106595;1272;22652;-47
2023/07/20 11:06:24;;;;;;;0.70;0.40;;;;;;;18.15;40.67;98968.86;106630;1277;99631;-48
2023/07/20 11:09:14;;;;;;;1.90;0.50;;;;;;;18.08;41.59;98964.30;106697;1275;24232;-51
2023/07/20 11:12:16;;;;;;;1.40;0.40;;;;;;;18.28;41.63;98959.39;106661;1271;99181;-48
2023/07/20 11:14:57;;;;;;;0.60;0.30;;;;;;;18.59;41.82;98964.07;106839;1277;26494;-49
2023/07/20 11:17:31;;;;;;;0.90;0.50;;;;;;;19.05;42.33;98962.29;106704;1274;99825;-47
2023/07/20 11:20:02;;;;;;;1.20;0.40;;;;;;;19.35;42.79;98967.38;106750;1272;25330;-49
2023/07/20 11:22:36;;;;;;;0.80;0.60;;;;;;;19.52;42.56;98966.48;106757;1274;25486;-48
2023/07/20 11:25:05;;;;;;;3.50;2.10;;;;;;;19.69;42.96;98968.50;106937;1270;99159;-48
2023/07/20 11:27:45;;;;;;;1.30;0.70;;;;;;;19.93;43.48;98966.02;106665;1277;25351;-48
2023/07/20 11:30:17;;;;;;;0.90;0.40;;;;;;;20.32;43.97;98968.86;106506;1270;99295;-49
2023/07/20 11:32:48;;;;;;;1.30;0.50;;;;;;;20.94;44.13;98963.34;106662;1270;22632;-48
2023/07/20 11:35:17;;;;;;;0.50;0.30;;;;;;;21.45;43.70;98962.38;106469;1273;99530;-48
2023/07/20 11:37:46;;;;;;;2.20;0.30;;;;;;;21.73;44.28;98965.44;106712;1271;25524;-50
2023/07/20 11:40:15;;;;;;;0.70;0.20;;;;;;;21.88;44.36;98971.46;106791;1273;22590;-49